Time;durP1;ratioP1;P1;durP2;ratioP2;P2;SDS_P1;SDS_P2;PMS_P1;PMS_P2;Temp;Humidity;BMP_temperature;BMP_pressure;BME280_temperature;BME280_humidity;BME280_pressure;Samples;Min_cycle;Max_cycle;Signal;HPM_P1;HPM_P2
2021/08/19 00:00:02;;;;;;;;;2.25;2.25;;;;;20.55;58.90;100991.19;5016805;28;51722;-61
2021/08/19 00:02:29;;;;;;;;;3.00;3.00;;;;;20.54;58.77;100975.34;5016893;28;46407;-61
2021/08/19 00:04:54;;;;;;;;;4.50;3.00;;;;;20.53;58.35;100979.88;5017204;28;45271;-61
2021/08/19 00:07:20;;;;;;;;;4.25;3.00;;;;;20.52;58.93;100982.72;5016265;28;67503;-61
2021/08/19 00:09:45;;;;;;;;;3.00;2.75;;;;;20.47;58.69;100980.63;5017003;28;45614;-61
2021/08/19 00:12:12;;;;;;;;;4.75;3.50;;;;;20.45;58.88;100988.81;5016151;28;70433;-61
2021/08/19 00:14:39;;;;;;;;;3.00;3.00;;;;;20.43;58.36;100984.69;5017189;28;45803;-59
2021/08/19 00:17:05;;;;;;;;;2.75;2.75;;;;;20.39;59.02;100986.09;5017158;28;45458;-61
2021/08/19 00:19:30;;;;;;;;;5.25;3.25;;;;;20.38;58.77;100984.44;5016936;28;45468;-61
2021/08/19 00:21:55;;;;;;;;;3.25;3.25;;;;;20.38;58.66;100985.28;5015763;28;75128;-61
2021/08/19 00:24:21;;;;;;;;;4.00;3.00;;;;;20.35;58.52;100974.97;5015946;28;69147;-61
2021/08/19 00:26:46;;;;;;;;;5.75;4.00;;;;;20.33;58.57;100978.84;5016066;28;67191;-61
2021/08/19 00:29:11;;;;;;;;;3.00;3.00;;;;;20.29;59.11;100978.41;5014804;28;66240;-61
2021/08/19 00:31:37;;;;;;;;;4.50;3.00;;;;;20.27;58.80;100972.44;5015616;28;75671;-60
2021/08/19 00:34:02;;;;;;;;;3.00;3.00;;;;;20.24;59.08;100968.28;5016754;28;45309;-61
2021/08/19 00:36:28;;;;;;;;;3.75;3.75;;;;;20.22;59.34;100966.84;5015916;28;65114;-61
2021/08/19 00:38:53;;;;;;;;;2.00;2.00;;;;;20.21;59.15;100963.31;5015652;28;69548;-60
2021/08/19 00:41:19;;;;;;;;;8.00;4.00;;;;;20.19;59.14;100962.69;5015578;28;75225;-62
2021/08/19 00:43:44;;;;;;;;;3.75;3.00;;;;;20.17;58.70;100959.38;5015461;28;45267;-61
2021/08/19 00:46:29;;;;;;;;;3.25;3.25;;;;;20.14;58.95;100957.94;5016691;28;45290;-61
2021/08/19 00:49:02;;;;;;;;;2.00;2.00;;;;;20.11;58.70;100955.63;5016632;28;45532;-61
2021/08/19 00:51:37;;;;;;;;;3.25;2.25;;;;;20.07;59.05;100951.69;5016438;28;46132;-61
2021/08/19 00:54:10;;;;;;;;;3.00;3.00;;;;;20.07;59.09;100950.88;5016486;28;46934;-61
2021/08/19 00:56:36;;;;;;;;;3.75;2.00;;;;;20.04;58.82;100957.41;5016692;28;45232;-61
2021/08/19 00:59:05;;;;;;;;;3.00;3.00;;;;;20.03;59.29;100958.41;5016464;28;45549;-61
2021/08/19 01:01:31;;;;;;;;;4.00;3.00;;;;;20.01;59.38;100961.28;5015081;28;46128;-61
2021/08/19 01:03:57;;;;;;;;;2.75;2.75;;;;;20.02;59.09;100957.59;5014893;28;45448;-60
2021/08/19 01:06:22;;;;;;;;;4.50;2.50;;;;;20.02;58.79;100957.59;5015341;28;45464;-60
2021/08/19 01:08:47;;;;;;;;;4.00;3.00;;;;;20.01;59.07;100955.09;5015422;28;67175;-60
2021/08/19 01:11:13;;;;;;;;;3.00;2.00;;;;;20.02;59.21;100946.94;5015020;28;75341;-61
2021/08/19 01:13:38;;;;;;;;;4.75;2.25;;;;;20.02;59.26;100943.44;5014748;28;45418;-61
2021/08/19 01:16:04;;;;;;;;;2.25;2.25;;;;;20.02;58.95;100938.09;5014949;28;45462;-61
2021/08/19 01:18:40;;;;;;;;;4.00;4.00;;;;;20.01;58.50;100945.28;5014814;28;45293;-61
2021/08/19 01:21:06;;;;;;;;;2.50;2.50;;;;;20.01;59.36;100933.78;5016087;28;45320;-61
2021/08/19 01:23:32;;;;;;;;;3.00;2.00;;;;;20.02;58.79;100938.09;5016018;28;45888;-61
2021/08/19 01:25:57;;;;;;;;;2.75;2.75;;;;;20.00;58.47;100940.13;5016230;28;45375;-61
2021/08/19 01:28:22;;;;;;;;;5.75;3.00;;;;;20.01;58.95;100944.44;4998195;28;45376;-61
2021/08/19 01:30:48;;;;;;;;;2.00;2.00;;;;;19.99;59.03;100941.97;5015133;28;69228;-60
2021/08/19 01:33:13;;;;;;;;;4.00;4.00;;;;;19.98;59.29;100937.66;5015060;28;72555;-61
2021/08/19 01:35:39;;;;;;;;;3.25;2.00;;;;;20.00;58.82;100937.44;5018537;28;65540;-61
2021/08/19 01:38:04;;;;;;;;;1.50;1.00;;;;;19.99;58.33;100933.97;5018484;28;65951;-60
2021/08/19 01:40:29;;;;;;;;;1.50;1.25;;;;;19.99;58.31;100936.66;5018221;28;74302;-61
2021/08/19 01:42:55;;;;;;;;;3.00;2.00;;;;;20.00;58.17;100938.28;5018545;28;66470;-61
2021/08/19 01:45:21;;;;;;;;;2.50;2.50;;;;;20.00;57.54;100924.97;5018548;28;65819;-60
2021/08/19 01:47:47;;;;;;;;;2.00;2.00;;;;;20.00;57.93;100921.44;5019498;28;45305;-61
2021/08/19 01:50:12;;;;;;;;;2.00;2.00;;;;;19.98;57.81;100924.31;5018867;28;53220;-61
2021/08/19 01:52:37;;;;;;;;;1.25;1.25;;;;;19.96;57.72;100926.34;5018285;28;71388;-61
2021/08/19 01:55:04;;;;;;;;;2.00;2.00;;;;;19.94;58.02;100928.38;5018134;28;45525;-61
2021/08/19 01:57:29;;;;;;;;;3.00;3.00;;;;;19.93;57.64;100929.41;5019098;28;45225;-61
2021/08/19 01:59:54;;;;;;;;;1.50;1.00;;;;;19.90;58.01;100921.75;5017953;28;73579;-61
2021/08/19 02:02:20;;;;;;;;;3.00;2.00;;;;;19.91;57.94;100927.91;5017989;28;73735;-61
2021/08/19 02:04:45;;;;;;;;;3.50;2.00;;;;;19.90;57.84;100927.09;5018156;28;69348;-61
2021/08/19 02:07:10;;;;;;;;;2.50;2.00;;;;;19.89;58.15;100932.59;5018077;28;69452;-61
2021/08/19 02:09:36;;;;;;;;;2.25;2.00;;;;;19.86;57.95;100931.97;5017845;28;74533;-61
2021/08/19 02:12:02;;;;;;;;;3.00;2.25;;;;;19.85;57.94;100930.31;5018966;28;45221;-61
2021/08/19 02:14:27;;;;;;;;;4.00;3.00;;;;;19.83;58.09;100920.84;5019099;28;45245;-59
2021/08/19 02:16:53;;;;;;;;;2.00;2.00;;;;;19.82;57.67;100925.34;5017973;28;69934;-60
2021/08/19 02:19:18;;;;;;;;;1.75;1.75;;;;;19.80;57.67;100926.53;5017716;28;70542;-61
2021/08/19 02:21:43;;;;;;;;;2.75;2.75;;;;;19.77;57.85;100918.91;5017944;28;70377;-61
2021/08/19 02:24:09;;;;;;;;;2.00;2.00;;;;;19.76;57.96;100926.09;5018064;28;64141;-61
2021/08/19 02:26:34;;;;;;;;;2.50;2.00;;;;;19.75;58.47;100920.94;5017734;28;70342;-61
2021/08/19 02:28:59;;;;;;;;;1.75;1.75;;;;;19.75;58.23;100924.44;5017868;28;65188;-61
2021/08/19 02:31:25;;;;;;;;;1.50;1.50;;;;;19.76;58.26;100922.59;5017728;28;67418;-61
2021/08/19 02:33:50;;;;;;;;;2.25;1.50;;;;;19.77;58.15;100922.41;5018994;28;45701;-61
2021/08/19 02:36:15;;;;;;;;;2.00;1.00;;;;;19.76;58.15;100914.59;5018731;28;45399;-60
2021/08/19 02:38:41;;;;;;;;;2.75;1.75;;;;;19.77;58.68;100916.25;5017217;28;75520;-61
2021/08/19 02:41:06;;;;;;;;;2.75;2.00;;;;;19.77;59.14;100913.59;5017400;28;73264;-60
2021/08/19 02:43:33;;;;;;;;;3.00;1.25;;;;;19.78;59.44;100909.91;5018053;28;51133;-61
2021/08/19 02:45:58;;;;;;;;;2.00;2.00;;;;;19.76;59.89;100909.25;5017303;28;45315;-61
2021/08/19 02:48:23;;;;;;;;;1.50;1.50;;;;;19.77;59.55;100897.59;5017842;28;60945;-61
2021/08/19 02:50:49;;;;;;;;;1.75;1.75;;;;;19.76;59.93;100898.59;5018168;28;45306;-61
2021/08/19 02:53:14;;;;;;;;;2.00;1.00;;;;;19.73;59.71;100897.97;5017766;28;56074;-60
2021/08/19 02:55:40;;;;;;;;;4.00;3.50;;;;;19.71;59.90;100899.16;5017395;28;65397;-61
2021/08/19 02:58:05;;;;;;;;;2.00;1.00;;;;;19.70;60.04;100895.66;5017400;28;67585;-61
2021/08/19 03:00:31;;;;;;;;;1.25;1.25;;;;;19.71;59.15;100896.50;5018053;28;45367;-61
2021/08/19 03:02:56;;;;;;;;;2.00;1.50;;;;;19.71;59.35;100897.31;5018182;28;45546;-60
2021/08/19 03:05:21;;;;;;;;;1.00;1.00;;;;;19.71;59.59;100892.00;5018276;28;45219;-61
2021/08/19 03:07:47;;;;;;;;;2.25;1.00;;;;;19.70;59.62;100892.19;5017045;28;73543;-61
2021/08/19 03:10:12;;;;;;;;;1.00;1.00;;;;;19.69;60.16;100896.69;5017176;28;68278;-61
2021/08/19 03:12:38;;;;;;;;;1.00;1.00;;;;;19.70;60.11;100894.84;5017684;28;53253;-60
2021/08/19 03:15:04;;;;;;;;;2.00;2.00;;;;;19.69;59.99;100894.00;5018085;28;45479;-60
2021/08/19 03:17:29;;;;;;;;;1.00;1.00;;;;;19.67;59.99;100890.72;5017815;28;46296;-61
2021/08/19 03:19:55;;;;;;;;;3.00;2.00;;;;;19.66;59.97;100888.25;5017938;28;45213;-61
2021/08/19 03:22:21;;;;;;;;;1.50;1.25;;;;;19.66;59.83;100891.72;5018103;28;45760;-61
2021/08/19 03:24:46;;;;;;;;;2.00;2.00;;;;;19.65;59.40;100892.72;5017859;28;45513;-61
2021/08/19 03:27:13;;;;;;;;;1.00;1.00;;;;;19.66;59.90;100888.25;5017069;28;60273;-61
2021/08/19 03:29:38;;;;;;;;;1.00;1.00;;;;;19.64;60.00;100885.75;5017888;28;45778;-60
2021/08/19 03:32:04;;;;;;;;;2.25;2.00;;;;;19.64;59.73;100890.28;5017060;28;66357;-60
2021/08/19 03:34:29;;;;;;;;;3.50;2.00;;;;;19.61;59.68;100888.78;5017735;28;45535;-61
2021/08/19 03:36:55;;;;;;;;;2.00;2.00;;;;;19.61;59.56;100891.47;5017443;28;45907;-60
2021/08/19 03:39:20;;;;;;;;;1.00;1.00;;;;;19.61;59.99;100890.66;5017586;28;45382;-61
2021/08/19 03:41:46;;;;;;;;;1.75;1.00;;;;;19.60;60.38;100883.66;5017339;28;54329;-61
2021/08/19 03:44:15;;;;;;;;;4.00;2.00;;;;;19.59;60.18;100890.84;5016688;28;68187;-61
2021/08/19 03:46:41;;;;;;;;;1.75;1.75;;;;;19.58;60.19;100884.66;5017287;28;46418;-61
2021/08/19 03:49:06;;;;;;;;;1.25;1.00;;;;;19.56;60.09;100888.56;5016316;28;73291;-61
2021/08/19 03:51:31;;;;;;;;;3.00;2.00;;;;;19.54;60.50;100880.72;5017481;28;45342;-61
2021/08/19 03:53:58;;;;;;;;;1.50;1.00;;;;;19.55;60.18;100882.38;5016439;28;70537;-61
2021/08/19 03:56:27;;;;;;;;;1.50;1.50;;;;;19.54;60.12;100879.91;5016797;28;45396;-61
2021/08/19 03:58:53;;;;;;;;;1.00;1.00;;;;;19.52;60.35;100872.09;5017347;28;45658;-60
2021/08/19 04:01:18;;;;;;;;;2.00;2.00;;;;;19.50;60.31;100882.13;5017048;28;50061;-61
2021/08/19 04:03:44;;;;;;;;;1.75;1.75;;;;;19.48;60.15;100884.13;5017170;28;45507;-60
2021/08/19 04:06:09;;;;;;;;;2.00;2.00;;;;;19.45;60.83;100881.84;5017060;28;45295;-60
2021/08/19 04:08:35;;;;;;;;;1.00;1.00;;;;;19.41;60.81;100884.06;5016018;28;72664;-60
2021/08/19 04:11:00;;;;;;;;;3.00;1.75;;;;;19.39;60.39;100878.09;5016930;28;49155;-60
2021/08/19 04:13:26;;;;;;;;;2.50;2.50;;;;;19.39;60.44;100886.09;5016299;28;63057;-61
2021/08/19 04:15:51;;;;;;;;;1.25;1.25;;;;;19.38;60.67;100887.09;5016033;28;70374;-61
2021/08/19 04:18:17;;;;;;;;;1.25;1.25;;;;;19.38;60.80;100884.44;5016468;28;61411;-62
2021/08/19 04:20:43;;;;;;;;;2.25;2.25;;;;;19.36;60.72;100878.47;5017014;28;45356;-61
2021/08/19 04:23:08;;;;;;;;;2.00;2.00;;;;;19.34;60.75;100872.50;5015882;28;69669;-61
2021/08/19 04:25:34;;;;;;;;;2.00;2.00;;;;;19.34;60.44;100875.16;5016871;28;45366;-61
2021/08/19 04:27:59;;;;;;;;;2.25;2.00;;;;;19.34;60.66;100874.34;5016349;28;54274;-61
2021/08/19 04:30:24;;;;;;;;;3.75;2.25;;;;;19.33;60.25;100870.84;5016017;28;65962;-61
2021/08/19 04:32:50;;;;;;;;;3.00;3.00;;;;;19.33;60.31;100870.84;5016665;28;45247;-60
2021/08/19 04:35:16;;;;;;;;;2.75;1.00;;;;;19.32;60.26;100871.84;5016581;28;45473;-61
2021/08/19 04:37:42;;;;;;;;;3.00;2.00;;;;;19.32;60.82;100871.03;5016622;28;45176;-60
2021/08/19 04:40:08;;;;;;;;;2.00;2.00;;;;;19.31;60.28;100869.41;5016508;28;45368;-61
2021/08/19 04:42:33;;;;;;;;;1.00;1.00;;;;;19.28;60.67;100875.91;5016550;28;45159;-60
2021/08/19 04:44:59;;;;;;;;;2.50;2.50;;;;;19.25;60.34;100876.28;5015595;28;75712;-61
2021/08/19 04:47:24;;;;;;;;;3.75;3.75;;;;;19.21;60.38;100872.31;5015561;28;71990;-61
2021/08/19 04:49:49;;;;;;;;;2.75;2.75;;;;;19.20;60.81;100873.34;5014252;28;69115;-60
2021/08/19 04:52:15;;;;;;;;;3.50;2.00;;;;;19.18;60.71;100868.19;5016030;28;56240;-61
2021/08/19 04:54:40;;;;;;;;;2.00;2.00;;;;;19.16;60.76;100878.22;5015461;28;72869;-60
2021/08/19 04:57:05;;;;;;;;;2.50;2.50;;;;;19.16;60.83;100878.22;5015388;28;73015;-61
2021/08/19 04:59:31;;;;;;;;;4.00;2.00;;;;;19.12;60.94;100880.41;5016220;28;47236;-61
2021/08/19 05:01:56;;;;;;;;;2.00;2.00;;;;;19.11;61.16;100876.09;5015590;28;64645;-61
2021/08/19 05:04:22;;;;;;;;;2.00;2.00;;;;;19.11;61.20;100886.75;5016042;28;46367;-60
2021/08/19 05:06:47;;;;;;;;;3.00;2.00;;;;;19.10;61.20;100889.59;5015264;28;73095;-61
2021/08/19 05:09:13;;;;;;;;;2.75;2.00;;;;;19.08;61.42;100887.09;5016753;28;66392;-61
2021/08/19 05:11:38;;;;;;;;;2.00;2.00;;;;;19.07;61.30;100895.28;5020018;28;45498;-61
2021/08/19 05:14:03;;;;;;;;;2.25;2.25;;;;;19.06;61.33;100889.16;5019051;28;65217;-61
2021/08/19 05:16:29;;;;;;;;;2.00;2.00;;;;;19.07;61.55;100895.28;5018948;28;66235;-61
2021/08/19 05:18:55;;;;;;;;;2.00;2.00;;;;;19.05;62.04;100900.81;5019697;28;45430;-61
2021/08/19 05:21:20;;;;;;;;;2.50;2.50;;;;;19.06;61.44;100896.31;5019409;28;49790;-60
2021/08/19 05:23:46;;;;;;;;;2.00;2.00;;;;;19.05;61.88;100898.16;5019291;28;53280;-61
2021/08/19 05:26:11;;;;;;;;;2.00;2.00;;;;;19.05;61.58;100906.16;5018767;28;67395;-60
2021/08/19 05:28:36;;;;;;;;;2.50;2.50;;;;;19.04;61.81;100904.50;5018919;28;59424;-60
2021/08/19 05:31:02;;;;;;;;;5.50;4.00;;;;;19.04;61.91;100904.50;5018649;28;67004;-61
2021/08/19 05:33:27;;;;;;;;;5.00;2.00;;;;;19.05;61.76;100906.16;5018590;28;70152;-60
2021/08/19 05:35:52;;;;;;;;;2.50;2.00;;;;;19.05;61.75;100908.81;5019471;28;45241;-61
2021/08/19 05:38:18;;;;;;;;;2.25;2.00;;;;;19.05;61.55;100903.47;5018750;28;63581;-61
2021/08/19 05:40:43;;;;;;;;;3.00;3.00;;;;;19.06;61.82;100904.28;5019419;28;45166;-61
2021/08/19 05:43:09;;;;;;;;;3.25;3.00;;;;;19.07;61.26;100897.97;5018783;28;60376;-61
2021/08/19 05:45:34;;;;;;;;;4.00;3.00;;;;;19.08;61.94;100907.59;5018408;28;69028;-60
2021/08/19 05:48:01;;;;;;;;;2.00;2.00;;;;;19.08;61.85;100907.59;5019388;28;45294;-61
2021/08/19 05:50:27;;;;;;;;;3.00;3.00;;;;;19.08;61.85;100903.09;5019212;28;45478;-61
2021/08/19 05:52:52;;;;;;;;;3.00;2.75;;;;;19.07;61.88;100901.47;5018972;28;49876;-61
2021/08/19 05:55:18;;;;;;;;;3.25;2.50;;;;;19.06;61.61;100904.28;5018715;28;54634;-61
2021/08/19 05:57:45;;;;;;;;;3.00;3.00;;;;;19.07;61.25;100905.94;5018181;28;66823;-60
2021/08/19 06:00:11;;;;;;;;;4.00;4.00;;;;;19.07;60.77;100908.59;5019210;28;45529;-61
2021/08/19 06:02:36;;;;;;;;;3.00;3.00;;;;;19.09;60.70;100907.41;5018714;28;46258;-60
2021/08/19 06:05:01;;;;;;;;;3.00;3.00;;;;;19.12;60.69;100906.22;5018847;28;48304;-61
2021/08/19 06:07:27;;;;;;;;;5.00;4.00;;;;;19.15;60.06;100908.53;5018798;28;48379;-60
2021/08/19 06:09:52;;;;;;;;;3.00;1.25;;;;;19.17;60.33;100906.50;5018163;28;65862;-60
2021/08/19 06:12:17;;;;;;;;;2.50;2.25;;;;;19.20;60.39;100910.63;5018371;28;54907;-61
2021/08/19 06:14:43;;;;;;;;;4.50;3.00;;;;;19.20;60.48;100900.81;5017850;28;68986;-60
2021/08/19 06:17:08;;;;;;;;;4.00;4.00;;;;;19.23;60.34;100910.25;5018922;28;45698;-61
2021/08/19 06:19:34;;;;;;;;;2.75;2.00;;;;;19.24;60.18;100906.59;5017627;28;65248;-61
2021/08/19 06:21:59;;;;;;;;;4.00;4.00;;;;;19.26;60.18;100909.88;5017311;28;73339;-61
2021/08/19 06:24:24;;;;;;;;;4.00;4.00;;;;;19.27;60.30;100907.06;5017628;28;70217;-61
2021/08/19 06:26:50;;;;;;;;;6.00;3.75;;;;;19.30;59.89;100905.03;5018728;28;45514;-61
2021/08/19 06:29:15;;;;;;;;;4.00;3.75;;;;;19.32;59.76;100909.16;5018088;28;59006;-61
2021/08/19 06:31:40;;;;;;;;;3.00;3.00;;;;;19.34;59.70;100901.00;5017684;28;69539;-61
2021/08/19 06:34:06;;;;;;;;;5.00;2.00;;;;;19.35;59.61;100906.13;5018527;28;45319;-60
2021/08/19 06:36:31;;;;;;;;;4.00;4.00;;;;;19.35;59.55;100903.47;5017666;28;66091;-61
2021/08/19 06:38:57;;;;;;;;;6.00;5.25;;;;;19.38;59.62;100904.91;5018302;28;45360;-61
2021/08/19 06:41:23;;;;;;;;;4.50;4.25;;;;;19.40;59.23;100906.41;5018307;28;45297;-61
2021/08/19 06:43:48;;;;;;;;;4.50;4.00;;;;;19.41;59.65;100897.38;5018242;28;45368;-61
2021/08/19 06:46:14;;;;;;;;;5.50;4.00;;;;;19.44;59.77;100904.16;5018388;28;45396;-61
2021/08/19 06:48:39;;;;;;;;;4.00;4.00;;;;;19.46;59.63;100898.66;5018199;28;45493;-61
2021/08/19 06:51:05;;;;;;;;;4.00;4.00;;;;;19.48;59.38;100894.78;5017054;28;72521;-61
2021/08/19 06:53:30;;;;;;;;;4.25;3.25;;;;;19.51;59.26;100896.28;5017926;28;51384;-61
2021/08/19 06:55:55;;;;;;;;;5.25;4.00;;;;;19.54;58.74;100895.91;5016004;28;61900;-61
2021/08/19 06:58:21;;;;;;;;;3.75;3.00;;;;;19.55;58.96;100901.03;5017423;28;60143;-61
2021/08/19 07:00:46;;;;;;;;;6.75;4.25;;;;;19.57;58.56;100903.53;5017014;28;68915;-61
2021/08/19 07:03:15;;;;;;;;;5.25;5.00;;;;;19.58;58.46;100907.84;5016829;28;67094;-60
2021/08/19 07:05:42;;;;;;;;;4.00;3.00;;;;;19.58;58.54;100903.34;5016942;28;45470;-61
2021/08/19 07:08:08;;;;;;;;;5.25;3.00;;;;;19.61;58.77;100910.13;5018079;28;45373;-61
2021/08/19 07:10:33;;;;;;;;;6.00;5.00;;;;;19.63;58.80;100905.41;5016977;28;73030;-61
2021/08/19 07:12:58;;;;;;;;;4.25;4.00;;;;;19.64;58.19;100907.06;5016919;28;69769;-60
2021/08/19 07:15:24;;;;;;;;;7.75;5.25;;;;;19.67;58.29;100905.91;5017206;28;61029;-62
2021/08/19 07:17:49;;;;;;;;;3.00;3.00;;;;;19.68;57.98;100913.69;5017844;28;45483;-61
2021/08/19 07:20:14;;;;;;;;;4.50;4.50;;;;;19.69;57.65;100915.34;5017509;28;46159;-61
2021/08/19 07:22:44;;;;;;;;;4.00;4.00;;;;;19.71;58.06;100912.50;5017041;28;55194;-60
2021/08/19 07:25:10;;;;;;;;;4.00;2.00;;;;;19.72;57.67;100912.31;5017810;28;45289;-62
2021/08/19 07:27:35;;;;;;;;;4.25;4.00;;;;;19.75;57.35;100908.44;5017473;28;47090;-61
2021/08/19 07:30:01;;;;;;;;;5.00;5.00;;;;;19.76;57.85;100903.94;5016504;28;75465;-61
2021/08/19 07:32:26;;;;;;;;;4.00;4.00;;;;;19.78;57.75;100904.56;5016002;28;69304;-60
2021/08/19 07:34:51;;;;;;;;;4.75;4.00;;;;;19.79;57.62;100898.22;5016685;28;64441;-61
2021/08/19 07:37:17;;;;;;;;;3.00;3.00;;;;;19.81;57.25;100896.19;5017140;28;50565;-61
2021/08/19 07:39:42;;;;;;;;;4.25;4.00;;;;;19.82;57.54;100896.03;5017220;28;45803;-60
2021/08/19 07:42:08;;;;;;;;;6.00;5.25;;;;;19.83;57.56;100897.69;5016336;28;68907;-61
2021/08/19 07:44:33;;;;;;;;;3.00;3.00;;;;;19.84;57.75;100899.34;5017301;28;45389;-61
2021/08/19 07:46:58;;;;;;;;;5.00;5.00;;;;;19.85;57.75;100898.31;5017371;28;45309;-60
2021/08/19 07:49:24;;;;;;;;;7.00;5.50;;;;;19.86;57.87;100893.78;5016482;28;67615;-60
2021/08/19 07:51:49;;;;;;;;;4.00;4.00;;;;;19.87;57.53;100890.13;5017105;28;51139;-60
2021/08/19 07:54:16;;;;;;;;;5.00;5.00;;;;;19.88;57.50;100894.44;5017254;28;45596;-61
2021/08/19 07:56:42;;;;;;;;;5.00;4.00;;;;;19.89;57.52;100901.44;5017252;28;45206;-61
2021/08/19 07:59:07;;;;;;;;;6.50;5.25;;;;;19.91;57.53;100896.75;5015989;28;69571;-61
2021/08/19 08:01:32;;;;;;;;;6.00;6.00;;;;;19.94;57.91;100898.19;5016234;28;65264;-61
2021/08/19 08:03:58;;;;;;;;;7.00;5.75;;;;;19.96;57.72;100897.00;5016948;28;45400;-62
2021/08/19 08:06:23;;;;;;;;;4.75;4.00;;;;;19.99;57.44;100896.63;5017057;28;45511;-61
2021/08/19 08:08:48;;;;;;;;;6.50;4.25;;;;;20.04;57.52;100905.91;5016114;28;69411;-59
2021/08/19 08:11:14;;;;;;;;;4.75;3.00;;;;;20.06;57.36;100910.03;5016651;28;52058;-61
2021/08/19 08:13:39;;;;;;;;;5.00;4.50;;;;;20.09;57.25;100904.31;5016213;28;65218;-61
2021/08/19 08:16:05;;;;;;;;;8.75;5.50;;;;;20.12;57.40;100909.28;5016972;28;45274;-61
2021/08/19 08:18:30;;;;;;;;;6.00;5.00;;;;;20.15;57.33;100903.56;5016784;28;45998;-62
2021/08/19 08:20:57;;;;;;;;;9.25;5.50;;;;;20.19;56.89;100903.19;5016730;28;45316;-60
2021/08/19 08:23:23;;;;;;;;;4.25;4.25;;;;;20.21;56.53;100915.28;5016832;28;45396;-60
2021/08/19 08:25:49;;;;;;;;;5.25;5.25;;;;;20.23;56.86;100907.94;5016922;28;45716;-61
2021/08/19 08:28:16;;;;;;;;;5.25;4.00;;;;;20.24;56.19;100917.59;5016646;28;46118;-59
2021/08/19 08:30:45;;;;;;;;;5.50;4.25;;;;;20.26;56.17;100918.22;5016631;28;45372;-60
2021/08/19 08:33:12;;;;;;;;;5.00;3.50;;;;;20.29;56.52;100917.03;5017002;28;45419;-61
2021/08/19 08:35:37;;;;;;;;;4.00;4.00;;;;;20.29;56.68;100917.03;5016823;28;45336;-61
2021/08/19 08:38:06;;;;;;;;;6.00;5.25;;;;;20.30;56.46;100916.00;5016675;28;45981;-61
2021/08/19 08:40:36;;;;;;;;;5.00;5.00;;;;;20.32;56.31;100924.66;5016494;28;45678;-61
2021/08/19 08:43:02;;;;;;;;;8.25;6.25;;;;;20.34;55.80;100916.44;5016119;28;45470;-61
2021/08/19 08:45:27;;;;;;;;;7.00;6.00;;;;;20.31;55.99;100923.81;5016195;28;45526;-61
2021/08/19 08:47:53;;;;;;;;;3.75;3.00;;;;;20.31;55.84;100923.81;5015200;28;46262;-60
2021/08/19 08:50:18;;;;;;;;;5.25;5.25;;;;;20.32;55.78;100924.66;5014291;28;73216;-60
2021/08/19 08:52:44;;;;;;;;;6.75;4.75;;;;;20.31;56.20;100923.81;5016643;28;45426;-62
2021/08/19 08:55:09;;;;;;;;;5.50;5.50;;;;;20.33;55.79;100928.97;5016305;28;45524;-62
2021/08/19 08:57:35;;;;;;;;;5.50;5.50;;;;;20.34;55.99;100927.13;5016354;28;45259;-60
2021/08/19 09:00:02;;;;;;;;;7.50;6.25;;;;;20.35;55.29;100926.94;5016074;28;45288;-60
2021/08/19 09:02:27;;;;;;;;;4.75;4.25;;;;;20.37;56.10;100932.06;5015223;28;45416;-62
2021/08/19 09:05:22;;;;;;;;;5.50;5.25;;;;;20.39;56.04;100932.72;4998085;28;45425;-61
2021/08/19 09:07:58;;;;;;;;;5.50;5.50;;;;;20.39;55.36;100930.03;5003277;28;45532;-61
2021/08/19 09:10:25;;;;;;;;;9.00;9.00;;;;;20.40;55.56;100921.81;5016202;28;45257;-61
2021/08/19 09:12:52;;;;;;;;;6.25;6.25;;;;;20.42;55.29;100935.00;5016365;28;45319;-61
2021/08/19 09:15:18;;;;;;;;;6.75;6.25;;;;;20.44;55.99;100932.97;5016082;28;45241;-60
2021/08/19 09:17:49;;;;;;;;;4.75;4.75;;;;;20.45;55.63;100930.09;5016108;28;45446;-60
2021/08/19 09:20:14;;;;;;;;;4.50;4.50;;;;;20.47;56.01;100932.59;5016074;28;45469;-60
2021/08/19 09:22:49;;;;;;;;;7.00;6.50;;;;;20.48;56.00;100944.91;5015843;28;49100;-61
2021/08/19 09:25:42;;;;;;;;;6.25;6.00;;;;;20.49;55.82;100933.22;5016198;28;45207;-61
2021/08/19 09:28:08;;;;;;;;;5.50;4.25;;;;;20.51;55.13;100947.19;5015852;28;50315;-61
2021/08/19 09:30:34;;;;;;;;;7.00;6.50;;;;;20.50;55.44;100932.19;5015978;28;45422;-61
2021/08/19 09:33:04;;;;;;;;;12.00;10.00;;;;;20.50;55.24;100944.69;5016032;28;45309;-60
2021/08/19 09:35:30;;;;;;;;;9.25;7.00;;;;;20.49;55.76;100935.88;5016164;28;45283;-60
2021/08/19 09:37:56;;;;;;;;;7.00;7.00;;;;;20.50;55.66;100926.03;5015915;28;47127;-61
2021/08/19 09:40:21;;;;;;;;;6.25;5.00;;;;;20.51;55.34;100930.34;5015646;28;45364;-61
2021/08/19 09:42:46;;;;;;;;;9.50;6.25;;;;;20.53;55.30;100936.31;5015050;28;64576;-62
2021/08/19 09:45:22;;;;;;;;;5.00;5.00;;;;;20.52;55.83;100932.00;5014717;28;70552;-62
2021/08/19 09:47:47;;;;;;;;;6.00;6.00;;;;;20.53;55.69;100931.81;5014387;28;46219;-61
2021/08/19 09:50:15;;;;;;;;;5.75;5.50;;;;;20.53;54.99;100931.81;5015764;28;45435;-61
2021/08/19 09:52:41;;;;;;;;;6.25;5.25;;;;;20.53;55.07;100923.81;5014553;28;45417;-61
2021/08/19 09:55:22;;;;;;;;;5.00;5.00;;;;;20.55;54.63;100924.44;5016657;28;45486;-60
2021/08/19 09:57:47;;;;;;;;;6.25;5.75;;;;;20.58;54.74;100926.72;5018998;28;47084;-61
2021/08/19 10:00:25;;;;;;;;;6.50;6.00;;;;;20.58;54.82;100916.06;5018833;28;47700;-60
2021/08/19 10:02:51;;;;;;;;;4.25;3.50;;;;;20.59;54.63;100919.53;5019009;28;45584;-61
2021/08/19 10:05:17;;;;;;;;;6.50;5.00;;;;;20.60;54.36;100916.69;5000967;28;45444;-60
2021/08/19 10:07:42;;;;;;;;;7.50;6.00;;;;;20.61;54.35;100914.81;5017532;28;72191;-62
2021/08/19 10:10:08;;;;;;;;;5.00;4.75;;;;;20.61;54.72;100913.00;5018709;28;45372;-61
2021/08/19 10:12:33;;;;;;;;;5.50;5.25;;;;;20.61;55.04;100918.34;5018879;28;45443;-61
2021/08/19 10:14:59;;;;;;;;;7.00;5.75;;;;;20.60;54.59;100916.69;5016485;28;67025;-61
2021/08/19 10:17:24;;;;;;;;;6.00;6.00;;;;;20.60;54.70;100916.69;5017567;28;75669;-62
2021/08/19 10:19:49;;;;;;;;;4.00;4.00;;;;;20.62;54.83;100924.47;5016499;28;68375;-62
2021/08/19 10:22:16;;;;;;;;;5.25;5.00;;;;;20.61;54.19;100917.50;5016882;28;63240;-62
2021/08/19 10:24:44;;;;;;;;;7.00;5.50;;;;;20.63;54.72;100914.66;5017573;28;45513;-61
2021/08/19 10:27:23;;;;;;;;;5.25;5.00;;;;;20.65;54.38;100926.78;5001024;28;45259;-61
2021/08/19 10:29:53;;;;;;;;;5.25;5.25;;;;;20.65;54.33;100917.94;5018461;28;50012;-61
2021/08/19 10:32:40;;;;;;;;;5.00;5.00;;;;;20.64;54.70;100918.97;5018767;28;45383;-60
2021/08/19 10:35:15;;;;;;;;;5.75;5.75;;;;;20.66;53.98;100919.59;5018832;28;45469;-61
2021/08/19 10:37:46;;;;;;;;;8.00;7.00;;;;;20.66;54.35;100916.94;5018361;28;46021;-61
2021/08/19 10:40:24;;;;;;;;;7.00;6.00;;;;;20.66;53.75;100914.25;5018204;28;45266;-61
2021/08/19 10:43:19;;;;;;;;;4.50;4.25;;;;;20.68;53.90;100910.38;5018569;28;45377;-61
2021/08/19 10:45:44;;;;;;;;;5.25;5.00;;;;;20.71;54.10;100911.81;5004344;28;45779;-62
2021/08/19 10:48:10;;;;;;;;;3.00;3.00;;;;;20.73;53.75;100907.94;5017348;28;69775;-61
2021/08/19 10:50:39;;;;;;;;;4.00;4.00;;;;;20.79;54.13;100917.03;5018449;28;45375;-61
2021/08/19 10:53:23;;;;;;;;;6.75;5.00;;;;;20.85;54.19;100923.47;5018324;28;45279;-60
2021/08/19 10:55:52;;;;;;;;;4.50;4.50;;;;;20.89;54.11;100914.84;5018416;28;45474;-60
2021/08/19 10:58:24;;;;;;;;;5.00;5.00;;;;;20.93;53.67;100922.47;5017966;28;45316;-61
2021/08/19 11:00:49;;;;;;;;;7.00;6.50;;;;;20.95;53.52;100920.44;5018050;28;45261;-62
2021/08/19 11:03:39;;;;;;;;;8.25;4.25;;;;;20.97;53.74;100916.53;5016738;28;45467;-61
2021/08/19 11:06:10;;;;;;;;;5.75;5.25;;;;;20.99;53.80;100924.38;5017592;28;45232;-61
2021/08/19 11:08:37;;;;;;;;;6.00;5.00;;;;;21.00;53.63;100926.03;5017659;28;47071;-61
2021/08/19 11:11:03;;;;;;;;;4.00;4.00;;;;;21.01;53.62;100922.31;5017946;28;45931;-60
2021/08/19 11:13:28;;;;;;;;;4.00;4.00;;;;;21.01;53.78;100919.66;5018073;28;45273;-61
2021/08/19 11:15:53;;;;;;;;;5.00;4.50;;;;;21.01;53.26;100920.47;5000241;28;45541;-61
2021/08/19 11:18:30;;;;;;;;;5.75;5.50;;;;;21.03;53.50;100914.94;5015683;28;75629;-60
2021/08/19 11:20:55;;;;;;;;;3.50;3.50;;;;;21.04;53.55;100914.72;5016473;28;45777;-61